x

West Washington - 300nm West Of Aberdeen, Wa (46005) Wave Buoy

12:50am - Sun 21st Sep 2014 All times are UTC.

  • Sig Wave height 6.6ft
  • Swell Direction
  • Peak Period 11s
  • Average Period 9s
  • Wind
    9mph, 11mph gusts
  • Sea Temp 67°f
  • Air Temp 65°f
  • Sea Pressure 1013.4mb

More Historic Weather Station data

Upgrade to MSW Pro to gain access to the past 30 days of data for over 8000 Wavebouys and Weather Stations around the globe.

Join Pro

Comparision Forecast

View Surf forecast
   
Sun 09/21 12:50am 6.5ft 11s 9s 9 11 mph 1013.4mb 67f 65f
Sat 09/20 11:50pm 7ft 11s 9s 9 11 mph 1014mb 67f 66f
10:50pm 6.5ft 12s 9s 7 11 mph 1014.5mb 67f 66f
9:50pm 6.5ft 11s 9s 4 7 mph 1015.2mb 67f 66f
8:50pm 7ft 12s 9s 7 9 mph 1015.9mb 67f 66f
7:50pm 6ft 13s 9s 7 9 mph 1016.6mb 67f 66f
6:50pm 7.5ft 12s 9s 7 9 mph 1017.2mb 67f 66f
5:50pm 7ft 13s 10s 7 9 mph 1017.6mb 66f 66f
4:50pm 7ft 11s 9s 7 9 mph 1017.9mb 66f 66f
3:50pm 7ft 11s 9s 7 9 mph 1018.1mb 66f 66f
2:50pm 7ft 11s 9s 4
mph
1018.1mb 66f 67f
1:50pm 8ft 12s 9s 4 7 mph 1018.1mb 66f 66f
12:50pm 7.5ft 13s 9s 7 9 mph 1018.3mb 66f 66f
11:50am 8ft 13s 9s 7 9 mph 1018.5mb 66f 66f
10:50am 9.5ft 12s 10s 7 9 mph 1018.7mb 66f 66f
9:50am 9ft 11s 9s 9 11 mph 1018.9mb 66f 66f
8:50am 9ft 13s 10s 9 11 mph 1019.2mb 67f 65f
7:50am 8.5ft 12s 10s 9 11 mph 1019.3mb 67f 66f
6:50am 10ft 12s 10s 7 11 mph 1019.5mb 67f 66f
5:50am 10ft 13s 10s 4 7 mph 1019.7mb 67f 66f
4:50am 9ft 12s 10s 2 7 mph 1019.6mb 67f 66f
3:50am 9.5ft 12s 10s 2 4 mph 1019.2mb 67f 66f
2:50am 10.5ft 13s 10s 4
mph
1018.9mb 67f 66f
1:50am 10ft 13s 9s 4 7 mph 1019.1mb 68f 67f
12:50am 10ft 13s 9s 4 7 mph 1019.2mb 68f 67f
Fri 09/19 11:50pm 10.5ft 13s 9s 4 7 mph 1019.2mb 68f 66f
10:50pm 9.5ft 11s 9s 4 7 mph 1019.4mb 68f 66f
9:50pm 10ft 10s 9s 4
mph
1019.5mb 67f 66f
8:50pm 9.5ft 11s 9s 4 7 mph 1019.4mb 67f 65f
7:50pm 10ft 11s 9s 4 7 mph 1019.4mb 67f 66f
6:50pm 8ft 9s 8s 4 7 mph 1019.1mb 66f 66f
5:50pm 8ft 10s 8s 2 4 mph 1018.7mb 66f 66f
4:50pm 6.5ft 9s 8s 4 7 mph 1018.4mb 66f 65f
3:50pm 7ft 9s 7s 4
mph
1018mb 66f 66f
2:50pm 7ft 9s 8s 4 7 mph 1017.4mb 66f 65f
1:50pm 6ft 9s 7s 4 7 mph 1016.9mb 66f 66f
12:50pm 7ft 8s 7s 7 9 mph 1016.6mb 66f 66f
11:50am 7ft 9s 7s 9 11 mph 1016.2mb 66f 66f
10:50am 7.5ft 8s 7s 9 11 mph 1016.2mb 66f 66f
9:50am 7ft 8s 7s 9 11 mph 1015.8mb 66f 66f
8:50am 6.5ft 8s 7s 11 13 mph 1015.3mb 66f 66f
7:50am 7ft 8s 7s 9 11 mph 1014.6mb 66f 66f
6:50am 7ft 16s 7s 13 16 mph 1014.3mb 66f 66f
5:50am 6ft 17s 6s 13 16 mph 1013.9mb 66f 67f
4:50am 6ft 16s 6s 16 20 mph 1013.4mb 66f 66f
3:50am 5.5ft 16s 6s 18 20 mph 1012.7mb 66f 66f
2:50am 5.5ft 17s 6s 18 20 mph 1011.8mb 66f 67f
1:50am 6ft 17s 6s 18 22 mph 1011.4mb 66f 66f
12:50am 6ft 17s 7s 18 22 mph 1011.4mb 66f 66f
Thu 09/18 11:50pm 6ft 16s 6s 20 22 mph 1011.3mb 66f 66f
10:50pm 5.5ft 17s 6s 18 22 mph 1010.9mb 66f 66f
9:50pm 5ft 17s 7s 18 20 mph 1011mb 66f 66f
8:50pm 5.5ft 17s 7s 16 20 mph 1011.3mb 66f 65f
7:50pm 5ft 17s 7s 13 18 mph 1010.9mb 66f 65f
6:50pm 5.5ft 17s 8s 11 16 mph 1010.6mb 66f 65f
5:50pm 6ft 17s 8s 11 13 mph 1010.3mb 66f 64f
4:50pm 6ft 8s 7s 11 13 mph 1009.8mb 66f 64f
3:50pm 6ft 17s 8s 11 16 mph 1009.4mb 66f 64f
2:50pm 6ft 10s 7s 13 16 mph 1008.9mb 66f 64f
1:50pm 6.5ft 8s 8s 11 13 mph 1008.2mb 66f 64f
12:50pm 7ft 17s 8s 7 11 mph 1008mb 66f 64f
11:50am 7ft 17s 8s 11 16 mph 1007.8mb 66f 64f
10:50am 7ft 17s 8s 7 11 mph 1007.6mb 66f 64f
9:50am 7ft 17s 8s 9 13 mph 1007.7mb 66f 64f
8:50am 7ft 10s 8s 9 11 mph 1007.3mb 66f 64f
7:50am 6.5ft 11s 8s 9 11 mph 1007.3mb 66f 64f
6:50am 7ft 11s 8s 9 11 mph 1007.1mb 66f 64f
5:50am 8ft 17s 8s 13 16 mph 1007.3mb 66f 64f
4:50am 7ft 17s 8s 11 13 mph 1006.8mb 66f 64f
3:50am 7ft 10s 8s 9 11 mph 1006.3mb 66f 64f
2:50am 6ft 11s 8s 9 11 mph 1006mb 66f 64f
1:50am 5.5ft 11s 8s 9 11 mph 1006mb 67f 64f
12:50am 6ft 12s 8s 7 9 mph 1005.8mb 67f 65f
Wed 09/17 11:50pm 6.5ft 11s 8s 9 11 mph 1005.8mb 67f 64f
10:50pm 6ft 12s 8s 9 13 mph 1005.9mb 67f 65f
9:50pm 6ft 11s 8s 9 11 mph 1006.1mb 67f 65f
8:50pm 7ft 19s 9s 4 7 mph 1006.3mb 67f 64f
7:50pm 6ft 12s 8s 2 4 mph 1006.1mb 67f 64f
6:50pm 6ft 12s 8s 2 4 mph 1006mb 66f 64f
5:50pm 6.5ft 11s 9s 4 7 mph 1005.7mb 66f 64f
3:50pm 7.5ft 13s 9s 4 7 mph 1005.7mb 66f 63f
2:50pm 7ft 12s 9s 7 9 mph 1005.6mb 66f 64f
1:50pm 7ft 13s 10s 7 9 mph 1005.4mb 66f 64f
12:50pm 6.5ft 13s 9s 7 9 mph 1005.2mb 66f 63f
11:50am 7.5ft 13s 9s 7 9 mph 1005.3mb 66f 63f
10:50am 7ft 13s 9s 7 9 mph 1005.7mb 66f 63f
9:50am 7ft 13s 9s 9 11 mph 1006mb 66f 64f
8:50am 7.5ft 19s 10s 9 11 mph 1006.4mb 66f 64f
7:50am 6.5ft 13s 9s 11 13 mph 1006.5mb 66f 64f
6:50am 7.5ft 13s 10s 13 16 mph 1006.4mb 66f 64f
5:50am 7ft 13s 9s 11 13 mph 1006.7mb 66f 64f
4:50am 7ft 13s 10s 11 13 mph 1006.8mb 66f 64f
3:50am 7.5ft 14s 10s 9 11 mph 1007mb 66f 64f
2:50am 8ft 13s 11s 9 11 mph 1007mb 66f 64f